Time;durP1;ratioP1;P1;durP2;ratioP2;P2;SDS_P1;SDS_P2;PMS_P1;PMS_P2;Temp;Humidity;BMP_temperature;BMP_pressure;BME280_temperature;BME280_humidity;BME280_pressure;Samples;Min_cycle;Max_cycle;Signal;HPM_P1;HPM_P2
2023/08/08 00:00:49;;;;;;;11.30;2.23;;;;;;;;;;4882484;29;20246;-72
2023/08/08 00:03:15;;;;;;;6.27;2.33;;;;;;;;;;4903938;29;20246;-73
2023/08/08 00:05:43;;;;;;;9.23;1.90;;;;;;;;;;4914588;29;20204;-73
2023/08/08 00:08:09;;;;;;;11.33;2.47;;;;;;;;;;4896492;29;20200;-73
2023/08/08 00:10:36;;;;;;;12.03;2.67;;;;;;;;;;4911100;29;20219;-72
2023/08/08 00:13:03;;;;;;;8.50;2.03;;;;;;;;;;4901411;29;20603;-72
2023/08/08 00:15:30;;;;;;;10.57;2.00;;;;;;;;;;4894562;29;20350;-73
2023/08/08 00:17:57;;;;;;;10.50;2.23;;;;;;;;;;4893818;29;20678;-72
2023/08/08 00:20:23;;;;;;;10.47;2.10;;;;;;;;;;4924118;29;20215;-72
2023/08/08 00:22:50;;;;;;;7.40;1.90;;;;;;;;;;4913287;29;20223;-72
2023/08/08 00:25:17;;;;;;;11.33;2.63;;;;;;;;;;4895302;29;20945;-73
2023/08/08 00:27:44;;;;;;;8.63;2.33;;;;;;;;;;4910614;29;20219;-72
2023/08/08 00:30:11;;;;;;;9.67;2.30;;;;;;;;;;4911451;29;20233;-72
2023/08/08 00:32:38;;;;;;;8.37;2.63;;;;;;;;;;4917999;29;20569;-72
2023/08/08 00:35:07;;;;;;;11.37;2.00;;;;;;;;;;4880394;29;20195;-72
2023/08/08 00:37:33;;;;;;;6.43;2.03;;;;;;;;;;4895423;29;20290;-72
2023/08/08 00:40:00;;;;;;;17.00;2.83;;;;;;;;;;4917539;29;20770;-72
2023/08/08 00:42:27;;;;;;;9.07;1.70;;;;;;;;;;4895244;29;20189;-73
2023/08/08 00:44:54;;;;;;;10.20;2.30;;;;;;;;;;4897918;29;20621;-73
2023/08/08 00:47:20;;;;;;;10.10;2.43;;;;;;;;;;4894679;29;20231;-73
2023/08/08 00:50:05;;;;;;;11.17;2.30;;;;;;;;;;4907204;29;20183;-72
2023/08/08 00:52:31;;;;;;;7.13;2.40;;;;;;;;;;4914804;29;21015;-72
2023/08/08 00:55:16;;;;;;;12.77;2.37;;;;;;;;;;4881836;29;20180;-72
2023/08/08 00:57:43;;;;;;;6.33;2.40;;;;;;;;;;4879365;29;20263;-74
2023/08/08 01:00:28;;;;;;;9.97;2.13;;;;;;;;;;4897373;29;20203;-72
2023/08/08 01:02:55;;;;;;;14.07;2.23;;;;;;;;;;4909855;29;20207;-72
2023/08/08 01:05:22;;;;;;;8.40;2.40;;;;;;;;;;4914434;29;20834;-72
2023/08/08 01:07:50;;;;;;;10.63;2.53;;;;;;;;;;4879541;29;20599;-72
2023/08/08 01:10:19;;;;;;;11.63;2.30;;;;;;;;;;4911110;29;20354;-72
2023/08/08 01:44:36;;;;;;;8.90;2.47;;;;;;;;;;4927901;29;20237;-72
2023/08/08 01:47:03;;;;;;;11.37;2.77;;;;;;;;;;4919712;29;20226;-72
2023/08/08 01:49:30;;;;;;;12.00;2.77;;;;;;;;;;4886634;29;20304;-72
2023/08/08 01:51:57;;;;;;;8.00;2.47;;;;;;;;;;4896224;29;20199;-72
2023/08/08 01:54:24;;;;;;;6.70;2.20;;;;;;;;;;4917111;29;20190;-73
2023/08/08 01:56:51;;;;;;;8.83;2.27;;;;;;;;;;4896289;29;20203;-73
2023/08/08 01:59:18;;;;;;;9.23;2.53;;;;;;;;;;4883107;29;20206;-72
2023/08/08 02:01:45;;;;;;;8.63;2.50;;;;;;;;;;4893914;29;20227;-72
2023/08/08 02:04:12;;;;;;;10.17;2.67;;;;;;;;;;4922474;29;20254;-74
2023/08/08 02:06:38;;;;;;;7.13;2.20;;;;;;;;;;4910599;29;20286;-72
2023/08/08 02:09:05;;;;;;;9.23;2.67;;;;;;;;;;4892067;29;20214;-74
2023/08/08 02:11:34;;;;;;;9.70;2.50;;;;;;;;;;4893941;29;20195;-72
2023/08/08 02:14:00;;;;;;;8.33;2.40;;;;;;;;;;4894486;29;20204;-72
2023/08/08 02:16:27;;;;;;;6.90;2.10;;;;;;;;;;4878546;29;20199;-72
2023/08/08 02:18:54;;;;;;;8.90;2.40;;;;;;;;;;4894848;29;20209;-72
2023/08/08 02:21:21;;;;;;;7.97;2.60;;;;;;;;;;4892336;29;20227;-72
2023/08/08 02:24:05;;;;;;;11.10;2.63;;;;;;;;;;4898411;29;20251;-72
2023/08/08 02:26:31;;;;;;;8.80;2.30;;;;;;;;;;4877642;29;20813;-73
2023/08/08 02:29:17;;;;;;;9.63;2.60;;;;;;;;;;4893038;29;20180;-74
2023/08/08 02:31:44;;;;;;;6.67;2.43;;;;;;;;;;4896587;29;20196;-72
2023/08/08 02:34:11;;;;;;;9.00;2.40;;;;;;;;;;4902138;29;20211;-73
2023/08/08 02:36:38;;;;;;;7.67;2.40;;;;;;;;;;4894151;29;20853;-72
2023/08/08 02:39:05;;;;;;;7.60;2.20;;;;;;;;;;4918700;29;20611;-73
2023/08/08 02:41:31;;;;;;;8.53;2.23;;;;;;;;;;4894016;29;20306;-72
2023/08/08 02:43:59;;;;;;;6.40;2.37;;;;;;;;;;4885631;29;20199;-73
2023/08/08 02:46:25;;;;;;;11.10;2.77;;;;;;;;;;4914202;29;20235;-73
2023/08/08 02:49:11;;;;;;;9.47;2.07;;;;;;;;;;4897353;29;20612;-73
2023/08/08 02:51:37;;;;;;;8.37;2.23;;;;;;;;;;4912537;29;20801;-73
2023/08/08 02:54:04;;;;;;;7.43;2.33;;;;;;;;;;4902680;29;20207;-73
2023/08/08 02:56:33;;;;;;;7.83;2.33;;;;;;;;;;4897267;29;20659;-73
2023/08/08 02:59:00;;;;;;;9.43;2.40;;;;;;;;;;4894622;29;20741;-73
2023/08/08 03:01:27;;;;;;;9.53;2.40;;;;;;;;;;4897546;29;20227;-73
2023/08/08 03:03:55;;;;;;;10.90;2.23;;;;;;;;;;4898201;29;20275;-72
2023/08/08 03:06:24;;;;;;;9.83;2.50;;;;;;;;;;4905135;29;20222;-73
2023/08/08 03:08:51;;;;;;;8.37;2.20;;;;;;;;;;4902683;29;20265;-73
2023/08/08 03:11:18;;;;;;;5.83;2.10;;;;;;;;;;4901466;29;20559;-73
2023/08/08 03:13:47;;;;;;;8.23;2.20;;;;;;;;;;4897416;29;20211;-73
2023/08/08 03:16:31;;;;;;;11.03;3.10;;;;;;;;;;4898871;29;20931;-73
2023/08/08 03:18:58;;;;;;;7.73;2.40;;;;;;;;;;4913545;29;20884;-73
2023/08/08 03:21:25;;;;;;;7.47;2.33;;;;;;;;;;4913029;29;20690;-72
2023/08/08 03:23:53;;;;;;;11.10;2.47;;;;;;;;;;4905262;29;20644;-73
2023/08/08 03:26:23;;;;;;;8.70;2.10;;;;;;;;;;4899514;29;20203;-73
2023/08/08 03:29:10;;;;;;;9.30;2.33;;;;;;;;;;4881763;29;20718;-73
2023/08/08 03:31:41;;;;;;;7.50;2.70;;;;;;;;;;4910481;29;20734;-72
2023/08/08 03:34:08;;;;;;;7.00;2.37;;;;;;;;;;4897370;29;20191;-72
2023/08/08 03:36:36;;;;;;;5.60;1.87;;;;;;;;;;4889620;29;20203;-72
2023/08/08 03:39:03;;;;;;;7.93;2.77;;;;;;;;;;4913899;29;20730;-73
2023/08/08 03:41:48;;;;;;;5.73;2.13;;;;;;;;;;4925120;29;20577;-72
2023/08/08 03:44:14;;;;;;;7.73;2.10;;;;;;;;;;4913168;29;20299;-73
2023/08/08 03:46:59;;;;;;;11.20;2.13;;;;;;;;;;4896284;29;20575;-73
2023/08/08 03:49:45;;;;;;;7.53;2.13;;;;;;;;;;4896850;29;20210;-72
2023/08/08 03:52:29;;;;;;;7.00;2.07;;;;;;;;;;4902082;29;20184;-73
2023/08/08 03:54:57;;;;;;;8.57;2.33;;;;;;;;;;4912644;29;20195;-72
2023/08/08 03:57:42;;;;;;;7.20;2.03;;;;;;;;;;4897551;29;20176;-73
2023/08/08 04:00:09;;;;;;;9.03;2.13;;;;;;;;;;4902617;29;20259;-72
2023/08/08 04:02:53;;;;;;;7.80;2.07;;;;;;;;;;4912881;29;20274;-74
2023/08/08 04:05:21;;;;;;;5.50;1.60;;;;;;;;;;4888005;29;20293;-73
2023/08/08 04:08:06;;;;;;;8.37;1.87;;;;;;;;;;4902578;29;20198;-73
2023/08/08 04:10:32;;;;;;;5.97;2.23;;;;;;;;;;4896030;29;20239;-73
2023/08/08 04:13:17;;;;;;;7.57;2.13;;;;;;;;;;4896171;29;20270;-73
2023/08/08 04:15:44;;;;;;;8.23;1.97;;;;;;;;;;4893430;29;20194;-72
2023/08/08 04:18:12;;;;;;;9.97;2.17;;;;;;;;;;4879646;29;20199;-72
2023/08/08 04:20:38;;;;;;;6.07;2.17;;;;;;;;;;4912237;29;20218;-73
2023/08/08 04:23:05;;;;;;;7.83;2.00;;;;;;;;;;4914085;29;20213;-73
2023/08/08 04:25:49;;;;;;;6.57;2.10;;;;;;;;;;4899233;29;20183;-73
2023/08/08 04:28:16;;;;;;;7.90;2.60;;;;;;;;;;4921234;29;20202;-73
2023/08/08 04:30:43;;;;;;;8.07;2.10;;;;;;;;;;4890351;29;20200;-73
2023/08/08 04:33:10;;;;;;;9.77;2.00;;;;;;;;;;4909044;29;20192;-73
2023/08/08 04:35:37;;;;;;;8.27;1.73;;;;;;;;;;4910756;29;20992;-73
2023/08/08 04:38:04;;;;;;;5.23;1.70;;;;;;;;;;4910089;29;20810;-72
2023/08/08 04:40:30;;;;;;;9.37;2.20;;;;;;;;;;4912791;29;20198;-73
2023/08/08 04:42:57;;;;;;;5.70;1.80;;;;;;;;;;4915477;29;20215;-73
2023/08/08 04:45:41;;;;;;;9.27;1.90;;;;;;;;;;4904430;29;20262;-72
2023/08/08 04:48:08;;;;;;;6.63;1.83;;;;;;;;;;4880133;29;20251;-72
2023/08/08 04:50:52;;;;;;;8.47;1.83;;;;;;;;;;4915608;29;21024;-73
2023/08/08 04:53:19;;;;;;;6.90;2.30;;;;;;;;;;4920167;29;20215;-73
2023/08/08 04:56:03;;;;;;;9.20;2.17;;;;;;;;;;4904062;29;20176;-73
2023/08/08 04:58:30;;;;;;;6.70;2.27;;;;;;;;;;4877985;29;20196;-73
2023/08/08 05:00:57;;;;;;;5.83;2.13;;;;;;;;;;4906416;29;20222;-72
2023/08/08 05:03:24;;;;;;;7.13;1.93;;;;;;;;;;4888160;29;20206;-73
2023/08/08 05:05:50;;;;;;;7.93;2.20;;;;;;;;;;4914419;29;20286;-73
2023/08/08 05:08:17;;;;;;;5.90;1.80;;;;;;;;;;4913574;29;20202;-73
2023/08/08 05:10:44;;;;;;;7.20;2.37;;;;;;;;;;4908553;29;20187;-72
2023/08/08 05:13:12;;;;;;;6.17;1.70;;;;;;;;;;4912284;29;20238;-72
2023/08/08 05:15:38;;;;;;;4.73;2.20;;;;;;;;;;4910928;29;20230;-73
2023/08/08 05:18:05;;;;;;;9.07;1.87;;;;;;;;;;4911499;29;20196;-73
2023/08/08 05:20:32;;;;;;;5.40;1.57;;;;;;;;;;4912331;29;20187;-74
2023/08/08 05:22:58;;;;;;;8.43;2.00;;;;;;;;;;4911475;29;20224;-73
2023/08/08 05:25:25;;;;;;;7.90;1.77;;;;;;;;;;4911819;29;20198;-72
2023/08/08 05:27:53;;;;;;;7.63;2.00;;;;;;;;;;4912398;29;20196;-72
2023/08/08 05:30:37;;;;;;;5.20;1.90;;;;;;;;;;4905320;29;20185;-73
2023/08/08 05:33:04;;;;;;;7.40;1.90;;;;;;;;;;4916034;29;20210;-72
2023/08/08 05:35:31;;;;;;;8.73;1.63;;;;;;;;;;4912043;29;20195;-72
2023/08/08 05:37:58;;;;;;;4.97;1.73;;;;;;;;;;4900065;29;20199;-73
2023/08/08 05:40:25;;;;;;;7.50;1.87;;;;;;;;;;4907572;29;20200;-73
2023/08/08 05:42:52;;;;;;;9.57;2.50;;;;;;;;;;4912454;29;21053;-73
2023/08/08 05:45:19;;;;;;;4.93;1.47;;;;;;;;;;4913937;29;20203;-72
2023/08/08 05:47:45;;;;;;;6.53;1.40;;;;;;;;;;4912883;29;20598;-73
2023/08/08 05:50:12;;;;;;;7.83;2.27;;;;;;;;;;4899044;29;20972;-73
2023/08/08 05:52:39;;;;;;;8.17;1.83;;;;;;;;;;4891624;29;20278;-72
2023/08/08 05:55:06;;;;;;;7.00;2.00;;;;;;;;;;4903358;29;20294;-72
2023/08/08 05:57:33;;;;;;;6.33;2.07;;;;;;;;;;4895195;29;20187;-73
2023/08/08 06:00:00;;;;;;;7.27;2.10;;;;;;;;;;4912787;29;20251;-72
2023/08/08 06:02:38;;;;;;;7.67;1.80;;;;;;;;;;4920652;29;20237;-73
2023/08/08 06:05:05;;;;;;;9.23;2.17;;;;;;;;;;4892110;29;20199;-72
2023/08/08 06:07:32;;;;;;;11.23;2.10;;;;;;;;;;4909913;29;20203;-72
2023/08/08 06:09:58;;;;;;;6.80;1.93;;;;;;;;;;4930192;29;20547;-73
2023/08/08 06:12:43;;;;;;;7.07;2.10;;;;;;;;;;4916476;29;20179;-73
2023/08/08 06:15:09;;;;;;;6.57;1.93;;;;;;;;;;4898414;29;20729;-72
2023/08/08 06:17:54;;;;;;;5.10;1.90;;;;;;;;;;4914107;29;20188;-72
2023/08/08 06:20:21;;;;;;;11.03;2.43;;;;;;;;;;4903398;29;20203;-72
2023/08/08 06:22:48;;;;;;;6.83;2.03;;;;;;;;;;4921170;29;20258;-72
2023/08/08 06:25:15;;;;;;;6.90;1.97;;;;;;;;;;4892602;29;20220;-72
2023/08/08 06:27:42;;;;;;;5.40;1.80;;;;;;;;;;4875791;29;20204;-73
2023/08/08 06:30:09;;;;;;;8.90;2.00;;;;;;;;;;4893901;29;20199;-73
2023/08/08 06:32:35;;;;;;;7.27;1.73;;;;;;;;;;4896982;29;20196;-72
2023/08/08 06:35:02;;;;;;;7.67;1.90;;;;;;;;;;4896606;29;20198;-72
2023/08/08 06:37:29;;;;;;;7.17;1.97;;;;;;;;;;4896663;29;20608;-73
2023/08/08 06:39:56;;;;;;;6.17;1.47;;;;;;;;;;4903523;29;20207;-76
2023/08/08 06:42:23;;;;;;;5.67;2.10;;;;;;;;;;4902106;29;20215;-72
2023/08/08 06:44:55;;;;;;;6.13;1.80;;;;;;;;;;4916696;29;20199;-73
2023/08/08 06:47:22;;;;;;;7.37;1.50;;;;;;;;;;4913888;29;20242;-73
2023/08/08 06:49:49;;;;;;;6.13;1.80;;;;;;;;;;4915469;29;20199;-72
2023/08/08 06:52:16;;;;;;;8.43;2.07;;;;;;;;;;4915318;29;20200;-73
2023/08/08 06:54:43;;;;;;;4.57;1.50;;;;;;;;;;4914793;29;20186;-74
2023/08/08 06:57:09;;;;;;;6.30;1.97;;;;;;;;;;4917728;29;20195;-72
2023/08/08 06:59:39;;;;;;;6.53;1.57;;;;;;;;;;4917760;29;20187;-73
2023/08/08 07:02:06;;;;;;;5.37;1.57;;;;;;;;;;4934373;29;20305;-72
2023/08/08 07:04:36;;;;;;;8.07;1.70;;;;;;;;;;4892570;29;20200;-72
2023/08/08 07:07:03;;;;;;;5.03;1.60;;;;;;;;;;4895923;29;20256;-73
2023/08/08 07:09:30;;;;;;;6.40;1.60;;;;;;;;;;4879348;29;20247;-72
2023/08/08 07:11:57;;;;;;;6.00;1.60;;;;;;;;;;4879322;29;20553;-72
2023/08/08 07:14:24;;;;;;;7.13;2.13;;;;;;;;;;4894146;29;20256;-72
2023/08/08 07:16:53;;;;;;;6.43;1.73;;;;;;;;;;4914796;29;20207;-72
2023/08/08 07:19:20;;;;;;;3.43;1.60;;;;;;;;;;4898600;29;20191;-72
2023/08/08 07:21:47;;;;;;;9.20;1.60;;;;;;;;;;4889378;29;20419;-72
2023/08/08 07:24:14;;;;;;;2.70;1.10;;;;;;;;;;4912159;29;20287;-73
2023/08/08 07:26:41;;;;;;;7.67;2.00;;;;;;;;;;4899562;29;20187;-72
2023/08/08 07:29:07;;;;;;;6.30;2.00;;;;;;;;;;4903122;29;20274;-72
2023/08/08 07:31:34;;;;;;;6.33;1.70;;;;;;;;;;4917813;29;20224;-73
2023/08/08 07:34:02;;;;;;;4.97;1.63;;;;;;;;;;4933517;29;20195;-73
2023/08/08 07:36:37;;;;;;;9.97;1.77;;;;;;;;;;4905040;29;20191;-74
2023/08/08 07:39:05;;;;;;;10.60;1.93;;;;;;;;;;4905990;29;20558;-72
2023/08/08 07:41:32;;;;;;;4.97;1.77;;;;;;;;;;4933057;29;20198;-73
2023/08/08 07:44:00;;;;;;;5.80;1.70;;;;;;;;;;4916316;29;20241;-73
2023/08/08 07:46:27;;;;;;;6.13;1.90;;;;;;;;;;4898105;29;20231;-72
2023/08/08 07:48:54;;;;;;;7.87;2.43;;;;;;;;;;4892123;29;20198;-73
2023/08/08 07:51:21;;;;;;;7.20;2.10;;;;;;;;;;4905956;29;20243;-72
2023/08/08 07:53:48;;;;;;;6.10;1.80;;;;;;;;;;4914446;29;20258;-73
2023/08/08 07:56:15;;;;;;;6.23;1.90;;;;;;;;;;4912746;29;20274;-72
2023/08/08 07:58:41;;;;;;;4.30;1.70;;;;;;;;;;4904243;29;20279;-73
2023/08/08 08:01:09;;;;;;;5.50;1.90;;;;;;;;;;4896269;29;20184;-73
2023/08/08 08:03:36;;;;;;;6.37;2.10;;;;;;;;;;4923079;29;20221;-73
2023/08/08 08:06:04;;;;;;;6.10;1.90;;;;;;;;;;4933083;29;20195;-72
2023/08/08 08:08:31;;;;;;;6.07;1.80;;;;;;;;;;4891837;29;20252;-72
2023/08/08 08:10:58;;;;;;;5.83;1.83;;;;;;;;;;4879281;29;20275;-72
2023/08/08 08:13:25;;;;;;;7.67;1.87;;;;;;;;;;4905165;29;20199;-73
2023/08/08 08:15:52;;;;;;;7.97;1.70;;;;;;;;;;4914058;29;20306;-73
2023/08/08 08:18:37;;;;;;;7.93;1.70;;;;;;;;;;4882680;29;20194;-74
2023/08/08 08:21:04;;;;;;;6.03;1.77;;;;;;;;;;4896766;29;20203;-73
2023/08/08 08:23:32;;;;;;;6.00;2.00;;;;;;;;;;4914267;29;21070;-73
2023/08/08 08:25:59;;;;;;;7.90;1.87;;;;;;;;;;4898242;29;20187;-74
2023/08/08 08:28:26;;;;;;;7.63;2.07;;;;;;;;;;4895769;29;20204;-73
2023/08/08 08:30:53;;;;;;;8.40;2.07;;;;;;;;;;4897010;29;20199;-72
2023/08/08 08:33:21;;;;;;;6.23;1.90;;;;;;;;;;4886971;29;20208;-70
2023/08/08 08:35:48;;;;;;;6.07;1.77;;;;;;;;;;4907655;29;20584;-71
2023/08/08 08:38:16;;;;;;;6.20;2.00;;;;;;;;;;4909707;29;20191;-72
2023/08/08 08:40:45;;;;;;;5.20;1.57;;;;;;;;;;4891203;29;20192;-72
2023/08/08 08:43:16;;;;;;;6.37;1.90;;;;;;;;;;4889691;29;20363;-71
2023/08/08 08:45:46;;;;;;;5.77;1.60;;;;;;;;;;4891932;29;20979;-72
2023/08/08 08:48:13;;;;;;;6.53;2.20;;;;;;;;;;4886979;29;20238;-72
2023/08/08 08:50:42;;;;;;;6.17;1.57;;;;;;;;;;4878079;29;20192;-71
2023/08/08 08:53:10;;;;;;;6.90;2.10;;;;;;;;;;4896382;29;20630;-71
2023/08/08 08:55:36;;;;;;;3.87;1.50;;;;;;;;;;4889494;29;20282;-72
2023/08/08 08:58:03;;;;;;;5.10;1.83;;;;;;;;;;4890916;29;20200;-71
2023/08/08 09:00:31;;;;;;;5.83;1.83;;;;;;;;;;4911630;29;20207;-70
2023/08/08 09:02:58;;;;;;;6.17;1.83;;;;;;;;;;4894369;29;20635;-70
2023/08/08 09:05:27;;;;;;;4.17;1.60;;;;;;;;;;4898985;29;20264;-69
2023/08/08 09:07:54;;;;;;;6.43;1.83;;;;;;;;;;4877502;29;20203;-70
2023/08/08 09:10:21;;;;;;;7.50;2.37;;;;;;;;;;4894349;29;20198;-70
2023/08/08 09:12:48;;;;;;;7.30;1.57;;;;;;;;;;4891811;29;20195;-70
2023/08/08 09:15:15;;;;;;;4.60;1.60;;;;;;;;;;4891371;29;20200;-70
2023/08/08 09:17:43;;;;;;;6.30;1.57;;;;;;;;;;4895565;29;20195;-71
2023/08/08 09:20:15;;;;;;;7.53;1.90;;;;;;;;;;4894675;29;20194;-70
2023/08/08 09:22:59;;;;;;;4.73;1.67;;;;;;;;;;4909888;29;20252;-70
2023/08/08 09:25:26;;;;;;;5.80;1.93;;;;;;;;;;4894642;29;20711;-70
2023/08/08 09:28:10;;;;;;;5.90;2.20;;;;;;;;;;4896786;29;20179;-71
2023/08/08 09:30:37;;;;;;;5.50;1.77;;;;;;;;;;4893381;29;20199;-70
2023/08/08 09:33:04;;;;;;;5.60;1.53;;;;;;;;;;4894069;29;20201;-70
2023/08/08 09:35:30;;;;;;;4.57;1.57;;;;;;;;;;4879343;29;20191;-70
2023/08/08 09:37:57;;;;;;;3.60;1.47;;;;;;;;;;4910046;29;20202;-70
2023/08/08 09:40:41;;;;;;;4.13;1.63;;;;;;;;;;4895531;29;20184;-70
2023/08/08 09:43:08;;;;;;;7.77;1.80;;;;;;;;;;4893409;29;20579;-69
2023/08/08 09:45:38;;;;;;;6.10;1.90;;;;;;;;;;4911184;29;20863;-70
2023/08/08 09:48:06;;;;;;;4.57;1.40;;;;;;;;;;4906235;29;20274;-70
2023/08/08 09:50:33;;;;;;;7.37;2.20;;;;;;;;;;4893141;29;20199;-69
2023/08/08 09:53:00;;;;;;;6.03;1.90;;;;;;;;;;4895022;29;20195;-69
2023/08/08 09:55:30;;;;;;;5.13;1.30;;;;;;;;;;4893213;29;20195;-70
2023/08/08 09:57:57;;;;;;;4.57;1.87;;;;;;;;;;4890113;29;20278;-69
2023/08/08 10:00:41;;;;;;;4.30;1.50;;;;;;;;;;4895777;29;20183;-69
2023/08/08 10:03:08;;;;;;;6.03;1.50;;;;;;;;;;4887521;29;20208;-69
2023/08/08 10:05:37;;;;;;;4.13;1.20;;;;;;;;;;4909831;29;20196;-70
2023/08/08 10:08:04;;;;;;;5.27;1.60;;;;;;;;;;4911011;29;20600;-70
2023/08/08 10:10:31;;;;;;;4.30;1.37;;;;;;;;;;4910744;29;20207;-70
2023/08/08 10:12:57;;;;;;;7.27;1.73;;;;;;;;;;4894308;29;20187;-70
2023/08/08 10:15:27;;;;;;;4.30;1.73;;;;;;;;;;4894161;29;20194;-70
2023/08/08 10:17:57;;;;;;;8.30;1.97;;;;;;;;;;4910266;29;20206;-70
2023/08/08 10:20:24;;;;;;;3.20;1.20;;;;;;;;;;4877769;29;20191;-70
2023/08/08 10:22:52;;;;;;;9.60;1.90;;;;;;;;;;4879197;29;20211;-70
2023/08/08 10:25:26;;;;;;;4.97;1.47;;;;;;;;;;4909196;29;20191;-70
2023/08/08 10:28:08;;;;;;;3.93;1.63;;;;;;;;;;4881318;29;20286;-73
2023/08/08 10:30:44;;;;;;;3.33;1.37;;;;;;;;;;4894934;29;20255;-71
2023/08/08 10:33:17;;;;;;;5.03;1.57;;;;;;;;;;4910846;29;20200;-73
2023/08/08 10:36:10;;;;;;;4.47;1.80;;;;;;;;;;4911094;29;20195;-71
2023/08/08 10:38:40;;;;;;;4.17;1.67;;;;;;;;;;4904901;29;20204;-69
2023/08/08 10:41:11;;;;;;;6.47;1.57;;;;;;;;;;4891259;29;20207;-68
2023/08/08 10:43:40;;;;;;;3.87;1.53;;;;;;;;;;4887041;29;20234;-67
2023/08/08 10:46:07;;;;;;;5.37;1.50;;;;;;;;;;4905380;29;20211;-72
2023/08/08 10:48:37;;;;;;;4.77;1.80;;;;;;;;;;4888759;29;20188;-67
2023/08/08 10:51:05;;;;;;;5.40;1.40;;;;;;;;;;4881810;29;20243;-72
2023/08/08 10:53:32;;;;;;;4.57;1.80;;;;;;;;;;4895038;29;20204;-72
2023/08/08 10:56:02;;;;;;;3.97;1.37;;;;;;;;;;4913395;29;20188;-72
2023/08/08 10:58:36;;;;;;;6.67;1.27;;;;;;;;;;4912363;29;20195;-72
2023/08/08 11:01:07;;;;;;;4.87;1.80;;;;;;;;;;4910684;29;20219;-72
2023/08/08 11:03:40;;;;;;;3.83;1.30;;;;;;;;;;4892824;29;20238;-71
2023/08/08 11:06:08;;;;;;;4.27;1.37;;;;;;;;;;4895246;29;20199;-71
2023/08/08 11:08:36;;;;;;;3.27;1.40;;;;;;;;;;4913233;29;20282;-71
2023/08/08 11:11:03;;;;;;;4.20;1.13;;;;;;;;;;4895674;29;20196;-72
2023/08/08 11:13:29;;;;;;;6.20;1.30;;;;;;;;;;4894306;29;20195;-71
2023/08/08 11:15:57;;;;;;;4.53;1.40;;;;;;;;;;4911270;29;20227;-68
2023/08/08 11:18:25;;;;;;;2.53;1.30;;;;;;;;;;4913760;29;20251;-68
2023/08/08 11:20:52;;;;;;;3.50;1.40;;;;;;;;;;4913043;29;20567;-71
2023/08/08 11:23:38;;;;;;;2.87;1.40;;;;;;;;;;4901780;29;20219;-70
2023/08/08 11:26:04;;;;;;;5.40;1.40;;;;;;;;;;4913749;29;20196;-68
2023/08/08 11:28:51;;;;;;;6.17;1.63;;;;;;;;;;4852211;29;20214;-70
2023/08/08 11:31:21;;;;;;;3.37;1.27;;;;;;;;;;4849007;29;20215;-70
2023/08/08 11:33:55;;;;;;;4.10;1.30;;;;;;;;;;4854141;29;20250;-67
2023/08/08 11:36:39;;;;;;;2.20;1.30;;;;;;;;;;4844831;29;20570;-66
2023/08/08 11:39:07;;;;;;;2.77;1.07;;;;;;;;;;4855887;29;20201;-67
2023/08/08 11:41:35;;;;;;;2.73;1.07;;;;;;;;;;4824960;29;20202;-68
2023/08/08 11:44:05;;;;;;;3.43;1.50;;;;;;;;;;4837999;29;20891;-69
2023/08/08 11:46:32;;;;;;;4.97;1.50;;;;;;;;;;4867228;29;20294;-67
2023/08/08 11:49:06;;;;;;;3.60;1.43;;;;;;;;;;4912665;29;20286;-68
2023/08/08 11:51:36;;;;;;;2.53;1.50;;;;;;;;;;4896385;29;20202;-68
2023/08/08 11:54:04;;;;;;;4.17;1.30;;;;;;;;;;4894083;29;20618;-69
2023/08/08 11:56:34;;;;;;;1.90;0.90;;;;;;;;;;4896351;29;20192;-68
2023/08/08 11:59:01;;;;;;;1.33;0.77;;;;;;;;;;4903119;29;21072;-70
2023/08/08 12:01:30;;;;;;;2.43;1.07;;;;;;;;;;4859529;29;20951;-69
2023/08/08 12:03:57;;;;;;;5.07;1.20;;;;;;;;;;4891118;29;20234;-70
2023/08/08 12:06:28;;;;;;;3.33;1.07;;;;;;;;;;4906838;29;20677;-70
2023/08/08 12:08:55;;;;;;;4.73;1.50;;;;;;;;;;4906731;29;20203;-72
2023/08/08 12:19:21;;;;;;;;;;;;;;;;;;;;;
2023/08/08 12:23:04;;;;;;;2.30;1.20;;;;;;;;;;4910116;29;20199;-68
2023/08/08 12:30:09;;;;;;;2.83;1.00;;;;;;;;;;4843678;29;20209;-68
2023/08/08 12:33:45;;;;;;;2.80;1.20;;;;;;;;;;4865496;29;20326;-69
2023/08/08 12:37:28;;;;;;;5.70;1.03;;;;;;;;;;4868180;29;20263;-69
2023/08/08 12:40:43;;;;;;;2.17;0.97;;;;;;;;;;4862090;29;20185;-67
2023/08/08 12:44:22;;;;;;;5.20;1.03;;;;;;;;;;4852109;29;20376;-68
2023/08/08 12:47:39;;;;;;;1.63;1.00;;;;;;;;;;4863582;29;20280;-68
2023/08/08 12:51:11;;;;;;;3.30;1.20;;;;;;;;;;4868224;29;20245;-67
2023/08/08 12:54:42;;;;;;;;;;;;;;;;;;;;;
2023/08/08 13:04:48;;;;;;;2.90;1.00;;;;;;;;;;4829793;29;20262;-69
2023/08/08 13:07:15;;;;;;;3.93;1.03;;;;;;;;;;4890267;29;20188;-69
2023/08/08 13:09:41;;;;;;;2.53;1.10;;;;;;;;;;4889664;29;20240;-68
2023/08/08 13:12:08;;;;;;;4.00;1.20;;;;;;;;;;4890856;29;20767;-69
2023/08/08 13:14:36;;;;;;;2.97;1.20;;;;;;;;;;4891048;29;20223;-67
2023/08/08 13:17:03;;;;;;;1.80;0.90;;;;;;;;;;4883979;29;20196;-67
2023/08/08 13:19:29;;;;;;;2.30;1.30;;;;;;;;;;4889341;29;20896;-69
2023/08/08 13:21:57;;;;;;;4.50;1.17;;;;;;;;;;4888778;29;20220;-68
2023/08/08 13:24:25;;;;;;;2.07;1.27;;;;;;;;;;4890241;29;20228;-68
2023/08/08 13:26:52;;;;;;;2.53;1.30;;;;;;;;;;4889699;29;21080;-69
2023/08/08 13:29:36;;;;;;;2.80;1.23;;;;;;;;;;4890118;29;20303;-71
2023/08/08 13:32:03;;;;;;;4.53;1.20;;;;;;;;;;4890583;29;20219;-71
2023/08/08 13:34:48;;;;;;;1.03;0.60;;;;;;;;;;4892396;29;20184;-71
2023/08/08 13:37:16;;;;;;;2.73;1.00;;;;;;;;;;4892799;29;20196;-72
2023/08/08 13:40:00;;;;;;;1.83;0.80;;;;;;;;;;4889840;29;20185;-73
2023/08/08 13:42:28;;;;;;;3.10;1.00;;;;;;;;;;4892168;29;20196;-72
2023/08/08 13:44:56;;;;;;;2.33;0.90;;;;;;;;;;4890269;29;20219;-72
2023/08/08 13:47:24;;;;;;;2.73;0.97;;;;;;;;;;4901117;29;20476;-72
2023/08/08 13:49:52;;;;;;;2.13;1.03;;;;;;;;;;4894902;29;20192;-72
2023/08/08 13:52:19;;;;;;;4.20;1.00;;;;;;;;;;4911541;29;20189;-71
2023/08/08 13:54:48;;;;;;;2.47;1.07;;;;;;;;;;4894588;29;20214;-72
2023/08/08 13:57:15;;;;;;;1.33;0.80;;;;;;;;;;4894252;29;20213;-72
2023/08/08 13:59:43;;;;;;;2.00;1.20;;;;;;;;;;4911352;29;20195;-72
2023/08/08 14:02:11;;;;;;;1.37;0.90;;;;;;;;;;4893463;29;20295;-71
2023/08/08 14:04:38;;;;;;;3.10;1.03;;;;;;;;;;4883157;29;20219;-71
2023/08/08 14:07:07;;;;;;;2.40;0.90;;;;;;;;;;4894085;29;20203;-72
2023/08/08 14:09:35;;;;;;;2.33;0.97;;;;;;;;;;4910563;29;20282;-72
2023/08/08 14:12:01;;;;;;;3.13;1.10;;;;;;;;;;4910292;29;20199;-73
2023/08/08 14:14:31;;;;;;;3.07;0.93;;;;;;;;;;4910929;29;20191;-71
2023/08/08 14:16:59;;;;;;;1.40;0.90;;;;;;;;;;4910129;29;20691;-72
2023/08/08 14:19:26;;;;;;;3.70;0.90;;;;;;;;;;4894535;29;20204;-73
2023/08/08 14:21:52;;;;;;;2.60;0.90;;;;;;;;;;4911986;29;20219;-77
2023/08/08 14:24:20;;;;;;;1.50;0.90;;;;;;;;;;4911081;29;20208;-72
2023/08/08 14:26:47;;;;;;;1.50;0.87;;;;;;;;;;4914936;29;20670;-76
2023/08/08 14:29:32;;;;;;;1.67;1.00;;;;;;;;;;4910890;29;20190;-73
2023/08/08 14:32:01;;;;;;;2.10;1.10;;;;;;;;;;4895549;29;20187;-79
2023/08/08 14:34:30;;;;;;;2.03;0.80;;;;;;;;;;4895552;29;20192;-78
2023/08/08 14:36:57;;;;;;;1.63;0.90;;;;;;;;;;4879679;29;20199;-74
2023/08/08 14:39:27;;;;;;;1.30;0.83;;;;;;;;;;4912593;29;20183;-80
2023/08/08 14:41:56;;;;;;;1.83;0.90;;;;;;;;;;4903024;29;20196;-81
2023/08/08 14:44:23;;;;;;;1.67;1.00;;;;;;;;;;4911241;29;20226;-77
2023/08/08 14:46:51;;;;;;;3.27;1.10;;;;;;;;;;4911025;29;20239;-78
2023/08/08 14:49:19;;;;;;;3.63;1.10;;;;;;;;;;4912109;29;20224;-76
2023/08/08 14:51:50;;;;;;;2.50;1.13;;;;;;;;;;4897169;29;20665;-76
2023/08/08 14:54:17;;;;;;;1.33;0.80;;;;;;;;;;4914601;29;20195;-76
2023/08/08 14:57:01;;;;;;;2.83;1.10;;;;;;;;;;4914730;29;20671;-75
2023/08/08 14:59:29;;;;;;;1.83;1.10;;;;;;;;;;4914853;29;20195;-74
2023/08/08 15:01:56;;;;;;;1.70;1.03;;;;;;;;;;4910767;29;20198;-74
2023/08/08 15:04:25;;;;;;;1.90;1.10;;;;;;;;;;4898501;29;20217;-69
2023/08/08 15:06:52;;;;;;;2.43;1.17;;;;;;;;;;4915758;29;20222;-69
2023/08/08 15:09:19;;;;;;;2.00;1.43;;;;;;;;;;4916875;29;20255;-73
2023/08/08 15:11:47;;;;;;;2.10;1.10;;;;;;;;;;4916994;29;20745;-78
2023/08/08 15:14:15;;;;;;;3.97;1.63;;;;;;;;;;4900630;29;20199;-77
2023/08/08 15:16:49;;;;;;;1.80;1.27;;;;;;;;;;4900171;29;20195;-78
2023/08/08 15:19:17;;;;;;;3.10;1.10;;;;;;;;;;4882056;29;20231;-83
2023/08/08 15:21:44;;;;;;;3.37;1.10;;;;;;;;;;4903266;29;20192;-80
2023/08/08 15:24:13;;;;;;;1.17;0.90;;;;;;;;;;4892512;29;20778;-78
2023/08/08 15:26:41;;;;;;;3.53;1.07;;;;;;;;;;4917990;29;20195;-81
2023/08/08 15:29:11;;;;;;;2.40;1.00;;;;;;;;;;4917084;29;20200;-76
2023/08/08 15:31:37;;;;;;;1.77;1.20;;;;;;;;;;4910035;29;20287;-83
2023/08/08 15:34:05;;;;;;;1.83;0.83;;;;;;;;;;4900008;29;20294;-78
2023/08/08 15:36:36;;;;;;;2.17;1.00;;;;;;;;;;4918071;29;20750;-82
2023/08/08 15:39:03;;;;;;;2.80;1.10;;;;;;;;;;4916324;29;20298;-73
2023/08/08 15:41:30;;;;;;;2.67;0.80;;;;;;;;;;4916069;29;20195;-77
2023/08/08 15:43:59;;;;;;;1.23;0.63;;;;;;;;;;4921454;29;20218;-78
2023/08/08 15:46:27;;;;;;;1.07;0.53;;;;;;;;;;4898891;29;20820;-74
2023/08/08 15:48:54;;;;;;;0.43;0.30;;;;;;;;;;4915916;29;20210;-76
2023/08/08 15:51:21;;;;;;;1.20;0.60;;;;;;;;;;4916225;29;20226;-74
2023/08/08 15:53:48;;;;;;;1.43;0.50;;;;;;;;;;4912697;29;20200;-74
2023/08/08 15:56:15;;;;;;;1.67;0.60;;;;;;;;;;4913697;29;20251;-74